createdAt,value
2022-08-27T00:03:46.740Z,9.15
2022-08-27T00:09:08.857Z,9.52
2022-08-27T00:14:31.297Z,10.75
2022-08-27T00:19:53.235Z,9.18
2022-08-27T00:25:15.149Z,10.10
2022-08-27T00:30:38.399Z,8.88
2022-08-27T00:36:01.822Z,8.80
2022-08-27T00:41:23.966Z,8.98
2022-08-27T00:46:59.193Z,9.10
2022-08-27T00:52:33.495Z,8.77
2022-08-27T00:58:18.363Z,9.40
2022-08-27T01:03:41.516Z,9.13
2022-08-27T01:09:09.817Z,9.20
2022-08-27T01:14:31.756Z,10.65
2022-08-27T01:19:59.913Z,9.75
2022-08-27T01:25:22.991Z,9.40
2022-08-27T01:30:44.990Z,10.48
2022-08-27T01:36:07.349Z,10.65
2022-08-27T01:41:29.197Z,10.65
2022-08-27T01:46:51.084Z,9.95
2022-08-27T01:52:14.459Z,10.25
2022-08-27T01:57:36.395Z,10.50
2022-08-27T02:02:59.310Z,9.85
2022-08-27T02:08:21.958Z,10.65
2022-08-27T02:13:43.837Z,11.48
2022-08-27T02:19:06.088Z,11.15
2022-08-27T02:24:31.700Z,11.30
2022-08-27T02:29:53.572Z,10.73
2022-08-27T02:35:17.972Z,10.27
2022-08-27T02:40:40.542Z,11.20
2022-08-27T02:46:03.561Z,10.48
2022-08-27T02:51:25.426Z,9.85
2022-08-27T02:56:47.353Z,9.57
2022-08-27T03:02:09.267Z,10.30
2022-08-27T03:07:31.267Z,10.45
2022-08-27T03:12:53.107Z,11.60
2022-08-27T03:18:15.377Z,10.77
2022-08-27T03:23:37.249Z,11.40
2022-08-27T03:28:59.161Z,11.40
2022-08-27T03:34:21.100Z,11.70
2022-08-27T03:39:42.973Z,11.05
2022-08-27T03:45:06.538Z,11.00
2022-08-27T03:50:28.422Z,11.38
2022-08-27T03:55:50.314Z,11.55
2022-08-27T04:01:12.185Z,11.75
2022-08-27T04:06:35.250Z,11.85
2022-08-27T04:11:57.109Z,11.48
2022-08-27T04:17:18.985Z,12.55
2022-08-27T04:22:40.866Z,11.65
2022-08-27T04:28:02.946Z,11.38
2022-08-27T04:33:25.003Z,9.65
2022-08-27T04:38:47.562Z,9.57
2022-08-27T04:44:10.786Z,10.15
2022-08-27T04:49:33.975Z,10.27
2022-08-27T04:54:55.952Z,10.07
2022-08-27T05:00:18.016Z,10.32
2022-08-27T05:05:42.543Z,10.95
2022-08-27T05:11:07.591Z,10.25
2022-08-27T05:16:29.878Z,10.45
2022-08-27T05:21:52.244Z,10.10
2022-08-27T05:27:14.100Z,9.80
2022-08-27T05:32:35.952Z,9.25
2022-08-27T05:37:57.846Z,9.40
2022-08-27T05:43:19.674Z,8.43
2022-08-27T05:48:42.202Z,8.25
2022-08-27T05:54:08.924Z,8.65
2022-08-27T05:59:30.966Z,6.82
2022-08-27T06:04:56.490Z,6.85
2022-08-27T06:10:18.420Z,6.85
2022-08-27T06:15:40.364Z,7.03
2022-08-27T06:21:02.428Z,6.55
2022-08-27T06:26:25.728Z,6.93
2022-08-27T06:31:47.610Z,6.50
2022-08-27T06:37:09.687Z,6.68
2022-08-27T06:42:31.577Z,6.78
2022-08-27T06:47:57.022Z,6.95
2022-08-27T06:53:18.896Z,6.63
2022-08-27T06:58:46.523Z,6.43
2022-08-27T07:04:10.816Z,5.83
2022-08-27T07:09:34.520Z,5.90
2022-08-27T07:14:56.398Z,9.95
2022-08-27T07:31:09.518Z,6.03
2022-08-27T07:36:34.574Z,6.25
2022-08-27T07:41:57.994Z,5.72
2022-08-27T07:47:20.091Z,5.72
2022-08-27T07:52:42.261Z,6.27
2022-08-27T07:58:05.053Z,5.87
2022-08-27T08:03:29.119Z,5.47
2022-08-27T08:08:51.082Z,6.05
2022-08-27T08:14:13.236Z,6.03
2022-08-27T08:19:35.310Z,5.93
2022-08-27T08:24:57.226Z,7.07
2022-08-27T08:30:19.291Z,6.20
2022-08-27T08:35:41.556Z,6.53
2022-08-27T08:41:06.249Z,6.57
2022-08-27T08:46:45.780Z,7.07
2022-08-27T08:52:18.224Z,6.55
2022-08-27T08:58:30.046Z,6.75
2022-08-27T09:03:57.392Z,6.57
2022-08-27T09:09:47.909Z,6.20
2022-08-27T09:15:16.550Z,6.60
2022-08-27T09:20:40.485Z,7.15
2022-08-27T09:26:03.673Z,7.07
2022-08-27T09:31:25.663Z,7.15
2022-08-27T09:36:53.643Z,7.53
2022-08-27T09:42:30.133Z,7.57
2022-08-27T09:48:14.288Z,7.50
2022-08-27T09:53:47.398Z,8.13
2022-08-27T09:59:21.377Z,7.70
2022-08-27T10:04:50.395Z,7.70
2022-08-27T10:10:26.014Z,8.07
2022-08-27T10:16:15.759Z,7.05
2022-08-27T10:21:52.319Z,7.43
2022-08-27T10:27:32.286Z,7.05
2022-08-27T10:33:10.609Z,7.28
2022-08-27T10:38:53.188Z,6.65
2022-08-27T10:44:36.354Z,6.50
2022-08-27T10:50:07.369Z,6.93
2022-08-27T10:55:40.234Z,5.28
2022-08-27T11:01:25.514Z,5.80
2022-08-27T11:06:57.876Z,6.10
2022-08-27T11:12:28.448Z,5.63
2022-08-27T11:17:57.447Z,4.90
2022-08-27T11:23:26.352Z,4.97
2022-08-27T11:29:01.790Z,4.70
2022-08-27T11:34:23.590Z,6.13
2022-08-27T11:40:04.077Z,5.57
2022-08-27T11:45:53.530Z,5.10
2022-08-27T11:51:32.200Z,4.75
2022-08-27T11:56:54.083Z,5.25
2022-08-27T12:02:27.651Z,6.07
2022-08-27T12:07:52.166Z,6.10
2022-08-27T12:13:51.400Z,6.17
2022-08-27T12:19:20.158Z,7.85
2022-08-27T12:24:56.920Z,7.20
2022-08-27T12:30:29.885Z,7.28
2022-08-27T12:35:54.354Z,6.13
2022-08-27T12:41:44.258Z,6.85
2022-08-27T12:47:10.941Z,8.35
2022-08-27T12:52:57.239Z,8.05
2022-08-27T12:58:24.380Z,8.18
2022-08-27T13:03:52.390Z,9.63
2022-08-27T13:09:14.281Z,9.73
2022-08-27T13:14:39.228Z,9.00
2022-08-27T13:20:01.881Z,7.88
2022-08-27T13:25:27.816Z,7.78
2022-08-27T13:30:50.886Z,7.45
2022-08-27T13:36:12.944Z,7.55
2022-08-27T13:41:38.004Z,7.53
2022-08-27T13:47:03.266Z,7.82
2022-08-27T13:52:32.411Z,6.68
2022-08-27T13:57:54.512Z,7.13
2022-08-27T14:03:31.777Z,7.53
2022-08-27T14:08:53.687Z,7.35
2022-08-27T14:14:18.012Z,7.18
2022-08-27T14:19:39.907Z,6.82
2022-08-27T14:25:01.923Z,6.40
2022-08-27T14:30:29.535Z,6.22
2022-08-27T14:35:52.218Z,5.65
2022-08-27T14:41:14.091Z,6.05
2022-08-27T14:46:42.875Z,5.78
2022-08-27T14:52:08.807Z,5.97
2022-08-27T14:57:30.677Z,6.22
2022-08-27T15:02:52.568Z,8.02
2022-08-27T15:08:14.489Z,6.15
2022-08-27T15:13:38.366Z,5.68
2022-08-27T15:19:01.586Z,7.72
2022-08-27T15:24:26.875Z,5.65
2022-08-27T15:29:48.863Z,5.93
2022-08-27T15:35:15.397Z,5.93
2022-08-27T15:40:37.361Z,5.80
2022-08-27T15:45:59.351Z,5.78
2022-08-27T15:51:31.211Z,6.55
2022-08-27T15:56:53.012Z,5.97
2022-08-27T16:02:21.071Z,5.82
2022-08-27T16:07:43.719Z,5.85
2022-08-27T16:13:05.609Z,5.50
2022-08-27T16:18:29.953Z,5.50
2022-08-27T16:23:51.787Z,5.07
2022-08-27T16:29:13.673Z,5.30
2022-08-27T16:34:35.514Z,5.57
2022-08-27T16:39:57.439Z,5.10
2022-08-27T16:45:22.732Z,5.90
2022-08-27T16:50:44.534Z,5.35
2022-08-27T16:56:06.751Z,5.25
2022-08-27T17:01:28.657Z,5.10
2022-08-27T17:06:50.520Z,4.85
2022-08-27T17:12:13.939Z,4.95
2022-08-27T17:17:35.770Z,4.78
2022-08-27T17:22:58.142Z,8.65
2022-08-27T17:28:20.067Z,5.72
2022-08-27T17:33:46.111Z,3.92
2022-08-27T17:39:08.045Z,4.75
2022-08-27T17:44:33.178Z,3.95
2022-08-27T17:49:54.966Z,4.60
2022-08-27T17:55:16.858Z,4.00
2022-08-27T18:00:39.146Z,4.00
2022-08-27T18:06:01.008Z,4.72
2022-08-27T18:11:23.575Z,4.88
2022-08-27T18:16:45.939Z,5.07
2022-08-27T18:22:07.744Z,4.60
2022-08-27T18:27:32.126Z,5.45
2022-08-27T18:32:54.486Z,4.43
2022-08-27T18:38:16.385Z,4.57
2022-08-27T18:43:38.341Z,4.32
2022-08-27T18:49:00.171Z,4.60
2022-08-27T18:54:24.036Z,4.07
2022-08-27T18:59:45.866Z,5.35
2022-08-27T19:05:11.217Z,4.35
2022-08-27T19:10:33.055Z,6.57
2022-08-27T19:15:58.412Z,5.65
2022-08-27T19:21:20.316Z,4.93
2022-08-27T19:26:42.619Z,4.63
2022-08-27T19:32:04.603Z,5.03
2022-08-27T19:37:29.434Z,5.00
2022-08-27T19:42:51.339Z,5.22
2022-08-27T19:48:14.486Z,5.38
2022-08-27T19:53:36.765Z,5.10
2022-08-27T19:59:05.883Z,5.07
2022-08-27T20:04:47.684Z,4.75
2022-08-27T20:10:21.595Z,5.82
2022-08-27T20:15:43.713Z,5.03
2022-08-27T20:21:08.269Z,4.38
2022-08-27T20:26:30.108Z,4.85
2022-08-27T20:31:52.033Z,4.80
2022-08-27T20:37:14.085Z,6.35
2022-08-27T20:42:36.111Z,5.55
2022-08-27T20:47:57.952Z,5.78
2022-08-27T20:53:20.048Z,5.20
2022-08-27T20:58:41.881Z,5.40
2022-08-27T21:04:04.403Z,5.10
2022-08-27T21:09:26.366Z,5.00
2022-08-27T21:14:48.405Z,5.63
2022-08-27T21:20:13.401Z,5.25
2022-08-27T21:25:35.539Z,5.50
2022-08-27T21:30:57.349Z,5.32
2022-08-27T21:36:19.227Z,5.22
2022-08-27T21:41:41.069Z,5.68
2022-08-27T21:47:03.361Z,5.57
2022-08-27T21:52:25.200Z,4.78
2022-08-27T21:57:47.331Z,5.60
2022-08-27T22:03:10.637Z,5.85
2022-08-27T22:08:32.762Z,5.53
2022-08-27T22:13:56.888Z,5.80
2022-08-27T22:19:19.088Z,5.57
2022-08-27T22:24:40.887Z,6.00
2022-08-27T22:30:06.461Z,6.20
2022-08-27T22:35:30.345Z,6.10
2022-08-27T22:40:52.253Z,5.80
2022-08-27T22:46:14.123Z,5.70
2022-08-27T22:51:35.983Z,5.65
2022-08-27T22:56:57.839Z,6.47
2022-08-27T23:02:19.709Z,5.97
2022-08-27T23:07:42.026Z,5.78
2022-08-27T23:13:05.347Z,6.30
2022-08-27T23:18:27.438Z,6.53
2022-08-27T23:23:49.437Z,5.82
2022-08-27T23:29:11.212Z,5.60
2022-08-27T23:34:33.063Z,5.75
2022-08-27T23:39:55.077Z,5.88
2022-08-27T23:45:21.956Z,6.60
2022-08-27T23:50:44.377Z,7.00
2022-08-27T23:56:06.434Z,6.50
